createdAt,value
2023-04-28T00:00:05.146Z,442.00
2023-04-28T00:01:05.126Z,443.00
2023-04-28T00:02:05.164Z,444.00
2023-04-28T00:03:05.276Z,444.00
2023-04-28T00:04:05.364Z,444.00
2023-04-28T00:05:05.477Z,442.00
2023-04-28T00:06:05.089Z,440.00
2023-04-28T00:07:05.151Z,440.00
2023-04-28T00:08:05.400Z,440.00
2023-04-28T00:09:05.153Z,440.00
2023-04-28T00:10:05.063Z,439.00
2023-04-28T00:11:05.109Z,433.00
2023-04-28T00:12:05.064Z,431.00
2023-04-28T00:13:05.089Z,446.00
2023-04-28T00:14:05.096Z,432.00
2023-04-28T00:15:05.050Z,438.00
2023-04-28T00:16:05.103Z,432.00
2023-04-28T00:17:05.117Z,430.00
2023-04-28T00:18:05.058Z,432.00
2023-04-28T00:19:05.054Z,433.00
2023-04-28T00:20:05.084Z,432.00
2023-04-28T00:21:05.037Z,430.00
2023-04-28T00:22:04.986Z,430.00
2023-04-28T00:23:05.036Z,432.00
2023-04-28T00:24:05.136Z,435.00
2023-04-28T00:25:05.000Z,437.00
2023-04-28T00:26:04.998Z,439.00
2023-04-28T00:27:04.985Z,444.00
2023-04-28T00:28:04.956Z,450.00
2023-04-28T00:29:04.985Z,453.00
2023-04-28T00:30:05.006Z,457.00
2023-04-28T00:31:05.006Z,458.00
2023-04-28T00:32:05.225Z,457.00
2023-04-28T00:33:05.216Z,452.00
2023-04-28T00:34:05.163Z,455.00
2023-04-28T00:35:05.202Z,452.00
2023-04-28T00:36:05.250Z,458.00
2023-04-28T00:37:05.250Z,448.00
2023-04-28T00:38:05.261Z,452.00
2023-04-28T00:39:05.310Z,454.00
2023-04-28T00:40:05.329Z,457.00
2023-04-28T00:41:05.357Z,454.00
2023-04-28T00:42:05.360Z,457.00
2023-04-28T00:43:05.423Z,453.00
2023-04-28T00:44:05.405Z,457.00
2023-04-28T00:45:05.439Z,455.00
2023-04-28T00:46:05.515Z,451.00
2023-04-28T00:47:05.637Z,452.00
2023-04-28T00:48:05.614Z,450.00
2023-04-28T00:49:05.654Z,450.00
2023-04-28T00:50:05.643Z,454.00
2023-04-28T00:51:05.714Z,452.00
2023-04-28T00:52:05.772Z,449.00
2023-04-28T00:53:05.872Z,445.00
2023-04-28T00:54:05.920Z,446.00
2023-04-28T00:55:05.936Z,448.00
2023-04-28T00:56:05.956Z,448.00
2023-04-28T00:57:05.976Z,447.00
2023-04-28T00:58:06.053Z,451.00
2023-04-28T00:59:06.111Z,453.00
2023-04-28T01:00:06.084Z,454.00
2023-04-28T01:01:06.130Z,454.00
2023-04-28T01:02:06.190Z,457.00
2023-04-28T01:03:06.233Z,461.00
2023-04-28T01:04:06.422Z,461.00
2023-04-28T01:05:06.291Z,459.00
2023-04-28T01:06:06.298Z,457.00
2023-04-28T01:07:06.285Z,457.00
2023-04-28T01:08:06.393Z,457.00
2023-04-28T01:09:06.419Z,458.00
2023-04-28T01:10:06.552Z,458.00
2023-04-28T01:11:06.485Z,460.00
2023-04-28T01:12:06.528Z,463.00
2023-04-28T01:13:06.627Z,462.00
2023-04-28T01:14:06.623Z,460.00
2023-04-28T01:15:06.629Z,461.00
2023-04-28T01:16:06.797Z,458.00
2023-04-28T01:17:07.522Z,458.00
2023-04-28T01:18:07.074Z,457.00
2023-04-28T01:19:06.838Z,455.00
2023-04-28T01:20:06.902Z,453.00
2023-04-28T01:21:06.913Z,451.00
2023-04-28T01:22:06.953Z,449.00
2023-04-28T01:23:06.976Z,447.00
2023-04-28T01:24:07.064Z,447.00
2023-04-28T01:25:07.083Z,449.00
2023-04-28T01:26:07.124Z,447.00
2023-04-28T01:27:07.200Z,449.00
2023-04-28T01:28:07.296Z,453.00
2023-04-28T01:29:07.321Z,452.00
2023-04-28T01:30:07.306Z,448.00
2023-04-28T01:31:08.444Z,444.00
2023-04-28T01:32:07.412Z,445.00
2023-04-28T01:33:07.455Z,450.00
2023-04-28T01:34:07.459Z,455.00
2023-04-28T01:35:07.444Z,451.00
2023-04-28T01:36:07.528Z,448.00
2023-04-28T01:37:07.537Z,448.00
2023-04-28T01:38:07.581Z,449.00
2023-04-28T01:39:07.620Z,453.00
2023-04-28T01:40:07.638Z,450.00
2023-04-28T01:41:07.637Z,452.00
2023-04-28T01:42:07.696Z,454.00
2023-04-28T01:43:07.760Z,454.00
2023-04-28T01:44:07.766Z,456.00
2023-04-28T01:45:07.739Z,456.00
2023-04-28T01:46:08.064Z,457.00
2023-04-28T01:47:07.754Z,459.00
2023-04-28T01:48:07.885Z,454.00
2023-04-28T01:49:07.823Z,452.00
2023-04-28T01:50:07.829Z,456.00
2023-04-28T01:51:07.870Z,456.00
2023-04-28T01:52:07.902Z,453.00
2023-04-28T01:53:07.960Z,455.00
2023-04-28T01:54:08.011Z,454.00
2023-04-28T01:55:08.074Z,455.00
2023-04-28T01:56:08.105Z,459.00
2023-04-28T01:57:08.169Z,450.00
2023-04-28T01:58:08.224Z,450.00
2023-04-28T01:59:08.299Z,451.00
2023-04-28T02:00:08.349Z,453.00
2023-04-28T02:01:08.478Z,451.00
2023-04-28T02:02:08.512Z,452.00
2023-04-28T02:03:08.595Z,455.00
2023-04-28T02:04:08.679Z,457.00
2023-04-28T02:05:08.647Z,460.00
2023-04-28T02:06:08.753Z,437.00
2023-04-28T02:07:08.834Z,444.00
2023-04-28T02:08:08.773Z,447.00
2023-04-28T02:09:08.923Z,452.00
2023-04-28T02:10:09.185Z,456.00
2023-04-28T02:11:08.934Z,457.00
2023-04-28T02:12:08.997Z,457.00
2023-04-28T02:13:09.086Z,456.00
2023-04-28T02:14:09.046Z,455.00
2023-04-28T02:15:09.117Z,454.00
2023-04-28T02:16:09.175Z,453.00
2023-04-28T02:17:09.196Z,452.00
2023-04-28T02:18:09.499Z,451.00
2023-04-28T02:19:09.583Z,452.00
2023-04-28T02:20:09.304Z,455.00
2023-04-28T02:21:09.308Z,455.00
2023-04-28T02:22:09.486Z,452.00
2023-04-28T02:23:09.485Z,453.00
2023-04-28T02:24:09.443Z,453.00
2023-04-28T02:25:09.432Z,453.00
2023-04-28T02:26:09.470Z,450.00
2023-04-28T02:27:09.480Z,455.00
2023-04-28T02:28:09.503Z,456.00
2023-04-28T02:29:09.563Z,457.00
2023-04-28T02:30:09.591Z,457.00
2023-04-28T02:31:09.686Z,459.00
2023-04-28T02:32:09.641Z,461.00
2023-04-28T02:33:09.721Z,459.00
2023-04-28T02:34:09.671Z,457.00
2023-04-28T02:35:09.680Z,454.00
2023-04-28T02:36:09.701Z,455.00
2023-04-28T02:37:09.663Z,452.00
2023-04-28T02:38:09.671Z,448.00
2023-04-28T02:39:09.698Z,455.00
2023-04-28T02:40:10.042Z,455.00
2023-04-28T02:41:09.700Z,461.00
2023-04-28T02:42:10.008Z,464.00
2023-04-28T02:43:09.722Z,468.00
2023-04-28T02:44:09.823Z,465.00
2023-04-28T02:45:09.820Z,463.00
2023-04-28T02:46:09.979Z,463.00
2023-04-28T02:47:09.967Z,461.00
2023-04-28T02:48:10.017Z,458.00
2023-04-28T02:49:10.048Z,458.00
2023-04-28T02:50:10.136Z,457.00
2023-04-28T02:51:10.191Z,456.00
2023-04-28T02:52:10.195Z,454.00
2023-04-28T02:53:10.310Z,449.00
2023-04-28T02:54:10.415Z,454.00
2023-04-28T02:55:10.375Z,454.00
2023-04-28T02:56:10.392Z,456.00
2023-04-28T02:57:10.469Z,457.00
2023-04-28T02:58:10.530Z,458.00
2023-04-28T02:59:10.533Z,459.00
2023-04-28T03:00:10.544Z,463.00
2023-04-28T03:01:10.566Z,459.00
2023-04-28T03:02:10.570Z,457.00
2023-04-28T03:03:10.793Z,457.00
2023-04-28T03:04:10.882Z,457.00
2023-04-28T03:05:10.642Z,454.00
2023-04-28T03:06:10.671Z,449.00
2023-04-28T03:07:10.749Z,448.00
2023-04-28T03:08:10.768Z,450.00
2023-04-28T03:09:10.796Z,455.00
2023-04-28T03:10:10.859Z,456.00
2023-04-28T03:11:10.874Z,455.00
2023-04-28T03:12:10.876Z,455.00
2023-04-28T03:13:10.929Z,455.00
2023-04-28T03:14:10.927Z,453.00
2023-04-28T03:15:12.101Z,452.00
2023-04-28T03:16:11.040Z,452.00
2023-04-28T03:17:10.933Z,452.00
2023-04-28T03:18:10.978Z,453.00
2023-04-28T03:19:10.986Z,442.00
2023-04-28T03:20:10.972Z,455.00
2023-04-28T03:21:11.177Z,451.00
2023-04-28T03:22:10.970Z,456.00
2023-04-28T03:23:10.930Z,452.00
2023-04-28T03:24:10.926Z,451.00
2023-04-28T03:25:10.903Z,452.00
2023-04-28T03:26:10.854Z,454.00
2023-04-28T03:27:10.848Z,456.00
2023-04-28T03:28:10.897Z,459.00
2023-04-28T03:29:10.878Z,459.00
2023-04-28T03:30:10.860Z,457.00
2023-04-28T03:31:10.834Z,459.00
2023-04-28T03:32:11.078Z,460.00
2023-04-28T03:33:10.944Z,460.00
2023-04-28T03:34:10.911Z,464.00
2023-04-28T03:35:10.808Z,462.00
2023-04-28T03:36:10.813Z,464.00
2023-04-28T03:37:10.867Z,464.00
2023-04-28T03:38:10.832Z,464.00
2023-04-28T03:39:10.836Z,464.00
2023-04-28T03:40:11.357Z,464.00
2023-04-28T03:41:10.779Z,460.00
2023-04-28T03:42:11.553Z,461.00
2023-04-28T03:43:10.788Z,463.00
2023-04-28T03:44:10.799Z,465.00
2023-04-28T03:45:10.759Z,466.00
2023-04-28T03:46:10.837Z,469.00
2023-04-28T03:47:10.731Z,463.00
2023-04-28T03:48:10.787Z,461.00
2023-04-28T03:49:10.738Z,465.00
2023-04-28T03:50:10.749Z,462.00
2023-04-28T03:51:10.705Z,462.00
2023-04-28T03:52:10.802Z,481.00
2023-04-28T03:53:10.748Z,469.00
2023-04-28T03:54:10.698Z,472.00
2023-04-28T03:55:10.689Z,473.00
2023-04-28T03:56:10.727Z,472.00
2023-04-28T03:57:10.674Z,475.00
2023-04-28T03:58:10.713Z,467.00
2023-04-28T03:59:10.694Z,464.00
2023-04-28T04:00:10.734Z,466.00
2023-04-28T04:01:10.679Z,464.00
2023-04-28T04:02:10.669Z,465.00
2023-04-28T04:03:10.893Z,465.00
2023-04-28T04:04:10.874Z,468.00
2023-04-28T04:05:10.865Z,468.00
2023-04-28T04:06:10.624Z,466.00
2023-04-28T04:07:10.610Z,467.00
2023-04-28T04:08:10.577Z,467.00
2023-04-28T04:09:10.646Z,469.00
2023-04-28T04:10:10.706Z,462.00
2023-04-28T04:11:10.625Z,470.00
2023-04-28T04:12:10.554Z,471.00
2023-04-28T04:13:10.572Z,476.00
2023-04-28T04:14:10.575Z,478.00
2023-04-28T04:15:10.678Z,479.00
2023-04-28T04:16:10.642Z,477.00
2023-04-28T04:17:10.523Z,473.00
2023-04-28T04:18:10.654Z,479.00
2023-04-28T04:19:10.546Z,474.00
2023-04-28T04:20:10.533Z,469.00
2023-04-28T04:21:10.563Z,476.00
2023-04-28T04:22:10.655Z,466.00
2023-04-28T04:23:10.680Z,466.00
2023-04-28T04:24:10.786Z,448.00
2023-04-28T04:25:10.848Z,475.00
2023-04-28T04:26:10.833Z,495.00
2023-04-28T04:27:10.939Z,485.00
2023-04-28T04:28:10.941Z,483.00
2023-04-28T04:29:11.048Z,500.00
2023-04-28T04:30:11.037Z,506.00
2023-04-28T04:31:11.256Z,498.00
2023-04-28T04:32:11.140Z,480.00
2023-04-28T04:33:11.041Z,466.00
2023-04-28T04:34:11.108Z,475.00
2023-04-28T04:35:11.145Z,487.00
2023-04-28T04:36:11.200Z,486.00
2023-04-28T04:37:11.234Z,523.00
2023-04-28T04:38:11.224Z,485.00
2023-04-28T04:39:11.285Z,474.00
2023-04-28T04:40:11.275Z,478.00
2023-04-28T04:41:11.370Z,471.00
2023-04-28T04:42:24.142Z,483.00
2023-04-28T04:43:12.385Z,480.00
2023-04-28T04:44:13.081Z,461.00
2023-04-28T04:45:11.363Z,473.00
2023-04-28T04:46:11.369Z,430.00
2023-04-28T04:47:11.459Z,470.00
2023-04-28T04:48:11.371Z,463.00
2023-04-28T04:49:11.349Z,461.00
2023-04-28T04:50:11.400Z,471.00
2023-04-28T04:51:11.354Z,470.00
2023-04-28T04:52:11.383Z,472.00
2023-04-28T04:53:13.984Z,473.00
2023-04-28T04:54:11.407Z,467.00
2023-04-28T04:55:11.350Z,467.00
2023-04-28T04:56:11.280Z,461.00
2023-04-28T04:57:11.278Z,461.00
2023-04-28T04:58:11.329Z,465.00
2023-04-28T04:59:11.310Z,466.00
2023-04-28T05:00:11.264Z,467.00
2023-04-28T05:01:11.268Z,468.00
2023-04-28T05:02:11.385Z,466.00
2023-04-28T05:03:11.323Z,462.00
2023-04-28T05:04:11.588Z,466.00
2023-04-28T05:05:20.625Z,465.00
2023-04-28T05:06:12.378Z,461.00
2023-04-28T05:07:11.208Z,472.00
2023-04-28T05:08:11.248Z,468.00
2023-04-28T05:09:11.275Z,466.00
2023-04-28T05:10:11.314Z,472.00
2023-04-28T05:11:11.262Z,463.00
2023-04-28T05:12:11.185Z,463.00
2023-04-28T05:13:11.299Z,463.00
2023-04-28T05:14:11.416Z,460.00
2023-04-28T05:15:11.368Z,460.00
2023-04-28T05:16:11.503Z,506.00
2023-04-28T05:17:11.539Z,455.00
2023-04-28T05:18:11.589Z,455.00
2023-04-28T05:19:11.861Z,480.00
2023-04-28T05:20:12.888Z,456.00
2023-04-28T05:21:12.244Z,454.00
2023-04-28T05:22:11.915Z,464.00
2023-04-28T05:23:11.826Z,449.00
2023-04-28T05:24:11.917Z,458.00
2023-04-28T05:25:11.885Z,467.00
2023-04-28T05:26:11.907Z,451.00
2023-04-28T05:27:11.954Z,461.00
2023-04-28T05:28:12.120Z,490.00
2023-04-28T05:29:12.028Z,480.00
2023-04-28T05:30:12.027Z,419.00
2023-04-28T05:31:12.040Z,469.00
2023-04-28T05:32:12.182Z,483.00
2023-04-28T05:33:12.699Z,470.00
2023-04-28T05:34:13.570Z,446.00
2023-04-28T05:35:12.581Z,462.00
2023-04-28T05:36:12.172Z,450.00
2023-04-28T05:37:12.273Z,428.00
2023-04-28T05:38:12.232Z,446.00
2023-04-28T05:39:12.451Z,426.00
2023-04-28T05:40:12.662Z,496.00
2023-04-28T05:41:12.419Z,465.00
2023-04-28T05:42:12.513Z,449.00
2023-04-28T05:43:12.536Z,452.00
2023-04-28T05:44:12.538Z,458.00
2023-04-28T05:45:13.110Z,457.00
2023-04-28T05:46:30.023Z,462.00
2023-04-28T05:47:13.799Z,447.00
2023-04-28T05:48:12.562Z,443.00
2023-04-28T05:49:12.537Z,445.00
2023-04-28T05:50:12.887Z,446.00
2023-04-28T05:51:12.531Z,471.00
2023-04-28T05:52:12.519Z,444.00
2023-04-28T05:53:12.512Z,451.00
2023-04-28T05:54:12.883Z,451.00
2023-04-28T05:55:12.938Z,442.00
2023-04-28T05:56:12.513Z,440.00
2023-04-28T05:57:12.471Z,437.00
2023-04-28T05:58:12.454Z,438.00
2023-04-28T05:59:12.457Z,438.00
2023-04-28T06:00:12.461Z,430.00
2023-04-28T06:01:12.449Z,459.00
2023-04-28T06:02:12.508Z,442.00
2023-04-28T06:03:12.600Z,441.00
2023-04-28T06:04:12.556Z,427.00
2023-04-28T06:05:12.848Z,436.00
2023-04-28T06:06:13.037Z,425.00
2023-04-28T06:07:12.721Z,427.00
2023-04-28T06:08:12.395Z,432.00
2023-04-28T06:09:12.438Z,441.00
2023-04-28T06:10:12.951Z,432.00
2023-04-28T06:11:12.384Z,427.00
2023-04-28T06:12:12.385Z,437.00
2023-04-28T06:13:13.968Z,435.00
2023-04-28T06:14:12.338Z,442.00
2023-04-28T06:15:12.599Z,450.00
2023-04-28T06:16:12.412Z,442.00
2023-04-28T06:17:12.427Z,400.00
2023-04-28T06:18:13.668Z,428.00
2023-04-28T06:19:12.506Z,457.00
2023-04-28T06:20:12.587Z,428.00
2023-04-28T06:21:12.528Z,439.00
2023-04-28T06:22:12.576Z,426.00
2023-04-28T06:23:12.691Z,428.00
2023-04-28T06:24:12.628Z,428.00
2023-04-28T06:25:12.622Z,437.00
2023-04-28T06:26:12.703Z,438.00
2023-04-28T06:27:12.648Z,424.00
2023-04-28T06:28:12.683Z,452.00
2023-04-28T06:29:12.745Z,441.00
2023-04-28T06:30:13.110Z,436.00
2023-04-28T06:31:12.880Z,449.00
2023-04-28T06:32:12.904Z,438.00
2023-04-28T06:33:12.934Z,445.00
2023-04-28T06:34:12.998Z,470.00
2023-04-28T06:35:13.900Z,447.00
2023-04-28T06:36:13.075Z,437.00
2023-04-28T06:37:13.165Z,427.00
2023-04-28T06:38:13.195Z,439.00
2023-04-28T06:39:13.254Z,418.00
2023-04-28T06:40:13.604Z,420.00
2023-04-28T06:41:13.268Z,435.00
2023-04-28T06:42:13.410Z,430.00
2023-04-28T06:43:13.727Z,446.00
2023-04-28T06:45:33.034Z,449.00
2023-04-28T06:46:33.132Z,452.00
2023-04-28T06:47:33.075Z,443.00
2023-04-28T06:48:32.998Z,446.00
2023-04-28T06:49:32.999Z,450.00
2023-04-28T06:50:33.125Z,445.00
2023-04-28T06:51:32.965Z,440.00
2023-04-28T06:52:38.422Z,438.00
2023-04-28T06:53:34.343Z,443.00
2023-04-28T06:54:34.376Z,448.00
2023-04-28T06:55:33.122Z,441.00
2023-04-28T06:56:33.425Z,448.00
2023-04-28T06:57:32.935Z,448.00
2023-04-28T06:58:32.977Z,451.00
2023-04-28T06:59:33.006Z,437.00
2023-04-28T07:00:33.920Z,441.00
2023-04-28T07:01:33.396Z,439.00
2023-04-28T07:02:33.412Z,442.00
2023-04-28T07:03:33.153Z,443.00
2023-04-28T07:04:32.928Z,435.00
2023-04-28T07:05:33.506Z,437.00
2023-04-28T07:06:32.929Z,436.00
2023-04-28T07:07:33.924Z,455.00
2023-04-28T07:08:33.021Z,432.00
2023-04-28T07:09:33.023Z,441.00
2023-04-28T07:10:33.179Z,439.00
2023-04-28T07:11:33.541Z,439.00
2023-04-28T07:12:33.187Z,439.00
2023-04-28T07:13:33.470Z,444.00
2023-04-28T07:14:33.236Z,435.00
2023-04-28T07:15:33.675Z,437.00
2023-04-28T07:16:33.473Z,442.00
2023-04-28T07:17:33.439Z,434.00
2023-04-28T07:18:33.476Z,433.00
2023-04-28T07:19:33.434Z,450.00
2023-04-28T07:20:33.551Z,429.00
2023-04-28T07:21:33.718Z,429.00
2023-04-28T07:22:33.559Z,437.00
2023-04-28T07:23:34.186Z,435.00
2023-04-28T07:24:33.653Z,432.00
2023-04-28T07:25:33.653Z,462.00
2023-04-28T07:26:34.195Z,442.00
2023-04-28T07:27:33.774Z,412.00
2023-04-28T07:28:34.098Z,443.00
2023-04-28T07:29:33.713Z,439.00
2023-04-28T07:30:33.722Z,444.00
2023-04-28T07:31:34.348Z,437.00
2023-04-28T07:32:33.823Z,423.00
2023-04-28T07:33:34.206Z,446.00
2023-04-28T07:34:33.992Z,448.00
2023-04-28T07:35:33.946Z,437.00
2023-04-28T07:36:34.022Z,434.00
2023-04-28T07:37:34.127Z,442.00
2023-04-28T07:38:34.091Z,447.00
2023-04-28T07:39:34.170Z,428.00
2023-04-28T07:40:34.586Z,441.00
2023-04-28T07:41:34.304Z,445.00
2023-04-28T07:42:34.181Z,434.00
2023-04-28T07:43:34.203Z,415.00
2023-04-28T07:44:34.212Z,434.00
2023-04-28T07:45:34.316Z,410.00
2023-04-28T07:46:35.875Z,440.00
2023-04-28T07:47:34.367Z,451.00
2023-04-28T07:48:34.324Z,435.00
2023-04-28T07:49:34.332Z,471.00
2023-04-28T07:50:35.011Z,450.00
2023-04-28T07:51:35.518Z,463.00
2023-04-28T07:52:34.445Z,444.00
2023-04-28T07:53:34.459Z,445.00
2023-04-28T07:54:36.866Z,434.00
2023-04-28T07:55:34.425Z,442.00
2023-04-28T07:56:35.046Z,451.00
2023-04-28T07:57:34.399Z,436.00
2023-04-28T07:58:34.405Z,463.00
2023-04-28T07:59:34.417Z,434.00
2023-04-28T08:00:34.406Z,442.00
2023-04-28T08:01:34.732Z,447.00
2023-04-28T08:02:34.618Z,438.00
2023-04-28T08:03:34.637Z,445.00
2023-04-28T08:04:34.955Z,450.00
2023-04-28T08:05:34.436Z,438.00
2023-04-28T08:06:34.430Z,477.00
2023-04-28T08:07:34.476Z,414.00
2023-04-28T08:08:34.355Z,442.00
2023-04-28T08:09:34.729Z,421.00
2023-04-28T08:10:34.392Z,439.00
2023-04-28T08:11:34.758Z,420.00
2023-04-28T08:12:34.347Z,435.00
2023-04-28T08:13:34.376Z,431.00
2023-04-28T08:14:34.420Z,433.00
2023-04-28T08:15:34.397Z,414.00
2023-04-28T08:16:34.293Z,436.00
2023-04-28T08:17:34.401Z,425.00
2023-04-28T08:18:34.323Z,440.00
2023-04-28T08:19:35.396Z,423.00
2023-04-28T08:20:34.340Z,417.00
2023-04-28T08:21:34.284Z,426.00
2023-04-28T08:22:34.278Z,421.00
2023-04-28T08:23:35.027Z,425.00
2023-04-28T08:24:34.285Z,426.00
2023-04-28T08:25:34.266Z,423.00
2023-04-28T08:26:34.659Z,457.00
2023-04-28T08:27:34.236Z,424.00
2023-04-28T08:28:34.320Z,421.00
2023-04-28T08:29:34.735Z,431.00
2023-04-28T08:30:34.232Z,418.00
2023-04-28T08:31:35.121Z,419.00
2023-04-28T08:32:34.222Z,463.00
2023-04-28T08:33:34.217Z,429.00
2023-04-28T08:34:34.232Z,433.00
2023-04-28T08:35:34.478Z,427.00
2023-04-28T08:36:34.637Z,426.00
2023-04-28T08:37:34.193Z,410.00
2023-04-28T08:38:34.192Z,438.00
2023-04-28T08:39:34.208Z,419.00
2023-04-28T08:40:34.268Z,426.00
2023-04-28T08:41:35.026Z,422.00
2023-04-28T08:42:34.174Z,477.00
2023-04-28T08:43:34.193Z,425.00
2023-04-28T08:44:34.213Z,451.00
2023-04-28T08:45:34.662Z,430.00
2023-04-28T08:46:34.657Z,429.00
2023-04-28T08:47:34.363Z,425.00
2023-04-28T08:48:34.367Z,425.00
2023-04-28T08:49:34.858Z,433.00
2023-04-28T08:50:34.429Z,448.00
2023-04-28T08:51:34.741Z,425.00
2023-04-28T08:52:34.689Z,423.00
2023-04-28T08:53:39.542Z,425.00
2023-04-28T08:54:35.800Z,447.00
2023-04-28T08:55:34.569Z,424.00
2023-04-28T08:56:34.656Z,430.00
2023-04-28T08:57:35.633Z,434.00
2023-04-28T08:58:35.675Z,423.00
2023-04-28T08:59:34.804Z,425.00
2023-04-28T09:00:35.249Z,422.00
2023-04-28T09:01:34.592Z,429.00
2023-04-28T09:02:35.003Z,425.00
2023-04-28T09:03:34.607Z,423.00
2023-04-28T09:04:34.789Z,422.00
2023-04-28T09:05:34.877Z,418.00
2023-04-28T09:06:34.552Z,431.00
2023-04-28T09:07:34.705Z,357.00
2023-04-28T09:08:34.594Z,412.00
2023-04-28T09:09:37.165Z,411.00
2023-04-28T09:10:34.467Z,417.00
2023-04-28T09:11:34.563Z,433.00
2023-04-28T09:12:34.875Z,435.00
2023-04-28T09:13:34.432Z,429.00
2023-04-28T09:14:34.430Z,427.00
2023-04-28T09:15:34.446Z,444.00
2023-04-28T09:16:34.431Z,428.00
2023-04-28T09:17:34.442Z,414.00
2023-04-28T09:18:34.441Z,428.00
2023-04-28T09:19:34.467Z,423.00
2023-04-28T09:20:34.487Z,422.00
2023-04-28T09:21:34.371Z,420.00
2023-04-28T09:22:34.613Z,432.00
2023-04-28T09:23:34.428Z,434.00
2023-04-28T09:24:34.380Z,412.00
2023-04-28T09:25:34.379Z,430.00
2023-04-28T09:26:34.343Z,419.00
2023-04-28T09:27:34.683Z,421.00
2023-04-28T09:28:34.312Z,438.00
2023-04-28T09:29:34.667Z,412.00
2023-04-28T09:30:34.587Z,432.00
2023-04-28T09:31:34.364Z,426.00
2023-04-28T09:32:34.455Z,416.00
2023-04-28T09:33:34.452Z,408.00
2023-04-28T09:34:34.418Z,417.00
2023-04-28T09:35:34.460Z,420.00
2023-04-28T09:36:34.452Z,440.00
2023-04-28T09:37:34.779Z,416.00
2023-04-28T09:38:34.443Z,419.00
2023-04-28T09:39:34.492Z,407.00
2023-04-28T09:40:34.505Z,419.00
2023-04-28T09:41:34.701Z,422.00
2023-04-28T09:42:34.765Z,419.00
2023-04-28T09:43:34.567Z,425.00
2023-04-28T09:44:34.629Z,439.00
2023-04-28T09:45:34.769Z,423.00
2023-04-28T09:46:34.655Z,413.00
2023-04-28T09:47:34.708Z,413.00
2023-04-28T09:48:34.687Z,413.00
2023-04-28T09:49:34.693Z,412.00
2023-04-28T09:50:34.715Z,410.00
2023-04-28T09:51:34.826Z,410.00
2023-04-28T09:52:34.762Z,414.00
2023-04-28T09:53:35.044Z,412.00
2023-04-28T09:54:34.780Z,411.00
2023-04-28T09:55:34.772Z,410.00
2023-04-28T09:56:35.531Z,392.00
2023-04-28T09:57:35.198Z,416.00
2023-04-28T09:58:34.847Z,410.00
2023-04-28T09:59:34.897Z,423.00
2023-04-28T10:00:34.818Z,433.00
2023-04-28T10:01:35.228Z,408.00
2023-04-28T10:02:43.488Z,414.00
2023-04-28T10:03:35.910Z,407.00
2023-04-28T10:04:35.045Z,423.00
2023-04-28T10:05:34.983Z,449.00
2023-04-28T10:06:34.874Z,415.00
2023-04-28T10:07:34.985Z,416.00
2023-04-28T10:08:35.162Z,411.00
2023-04-28T10:09:34.797Z,401.00
2023-04-28T10:10:34.781Z,413.00
2023-04-28T10:11:34.823Z,413.00
2023-04-28T10:12:35.365Z,416.00
2023-04-28T10:13:34.797Z,415.00
2023-04-28T10:14:34.777Z,417.00
2023-04-28T10:15:34.824Z,457.00
2023-04-28T10:16:34.891Z,407.00
2023-04-28T10:17:34.804Z,410.00
2023-04-28T10:18:35.222Z,412.00
2023-04-28T10:19:34.792Z,416.00
2023-04-28T10:20:34.818Z,413.00
2023-04-28T10:21:34.850Z,419.00
2023-04-28T10:22:35.298Z,407.00
2023-04-28T10:23:35.695Z,410.00
2023-04-28T10:24:34.911Z,414.00
2023-04-28T10:25:35.340Z,409.00
2023-04-28T10:26:34.976Z,406.00
2023-04-28T10:27:35.016Z,409.00
2023-04-28T10:28:35.219Z,423.00
2023-04-28T10:29:35.009Z,408.00
2023-04-28T10:30:35.096Z,416.00
2023-04-28T10:31:35.015Z,420.00
2023-04-28T10:32:35.210Z,418.00
2023-04-28T10:33:35.222Z,417.00
2023-04-28T10:34:35.096Z,421.00
2023-04-28T10:35:36.062Z,499.00
2023-04-28T10:37:35.206Z,395.00
2023-04-28T10:38:35.692Z,424.00
2023-04-28T10:39:35.188Z,419.00
2023-04-28T10:40:36.093Z,430.00
2023-04-28T10:41:35.250Z,424.00
2023-04-28T10:42:36.677Z,425.00
2023-04-28T10:43:36.078Z,412.00
2023-04-28T10:44:36.764Z,406.00
2023-04-28T10:45:35.627Z,423.00
2023-04-28T10:46:35.462Z,406.00
2023-04-28T10:47:35.454Z,423.00
2023-04-28T10:48:36.488Z,411.00
2023-04-28T10:49:35.458Z,425.00
2023-04-28T10:51:35.502Z,418.00
2023-04-28T10:52:35.528Z,419.00
2023-04-28T10:53:35.463Z,429.00
2023-04-28T10:54:35.489Z,403.00
2023-04-28T10:55:35.491Z,418.00
2023-04-28T10:56:35.815Z,408.00
2023-04-28T10:57:35.559Z,425.00
2023-04-28T10:58:36.118Z,421.00
2023-04-28T10:59:35.417Z,414.00
2023-04-28T11:00:35.420Z,430.00
2023-04-28T11:01:35.495Z,404.00
2023-04-28T11:02:35.540Z,411.00
2023-04-28T11:03:35.946Z,413.00
2023-04-28T11:04:35.508Z,429.00
2023-04-28T11:05:35.509Z,423.00
2023-04-28T11:06:35.426Z,424.00
2023-04-28T11:07:35.348Z,419.00
2023-04-28T11:08:35.432Z,425.00
2023-04-28T11:09:35.403Z,422.00
2023-04-28T11:10:35.483Z,431.00
2023-04-28T11:11:35.383Z,420.00
2023-04-28T11:12:36.556Z,410.00
2023-04-28T11:13:36.208Z,418.00
2023-04-28T11:14:35.744Z,417.00
2023-04-28T11:15:35.412Z,383.00
2023-04-28T11:16:35.562Z,415.00
2023-04-28T11:17:35.497Z,404.00
2023-04-28T11:18:35.442Z,407.00
2023-04-28T11:19:35.362Z,409.00
2023-04-28T11:20:35.383Z,410.00
2023-04-28T11:21:36.165Z,409.00
2023-04-28T11:22:35.396Z,403.00
2023-04-28T11:23:35.784Z,398.00
2023-04-28T11:24:35.442Z,404.00
2023-04-28T11:25:36.033Z,408.00
2023-04-28T11:26:35.488Z,404.00
2023-04-28T11:27:35.651Z,411.00
2023-04-28T11:28:36.109Z,411.00
2023-04-28T11:29:36.033Z,398.00
2023-04-28T11:30:35.799Z,418.00
2023-04-28T11:31:35.867Z,418.00
2023-04-28T11:32:35.946Z,439.00
2023-04-28T11:33:36.219Z,435.00
2023-04-28T11:34:35.848Z,405.00
2023-04-28T11:35:36.553Z,417.00
2023-04-28T11:36:35.970Z,419.00
2023-04-28T11:37:35.866Z,410.00
2023-04-28T11:38:35.951Z,415.00
2023-04-28T11:39:36.023Z,423.00
2023-04-28T11:40:36.117Z,418.00
2023-04-28T11:41:36.133Z,412.00
2023-04-28T11:42:36.118Z,430.00
2023-04-28T11:43:46.557Z,402.00
2023-04-28T11:44:37.156Z,412.00
2023-04-28T11:45:36.181Z,415.00
2023-04-28T11:46:36.106Z,444.00
2023-04-28T11:47:36.151Z,430.00
2023-04-28T11:48:36.278Z,426.00
2023-04-28T11:49:37.694Z,435.00
2023-04-28T11:50:36.154Z,388.00
2023-04-28T11:51:36.113Z,397.00
2023-04-28T11:52:36.088Z,409.00
2023-04-28T11:53:36.445Z,442.00
2023-04-28T11:54:36.104Z,411.00
2023-04-28T11:55:38.221Z,414.00
2023-04-28T11:56:36.068Z,416.00
2023-04-28T11:57:36.011Z,419.00
2023-04-28T11:58:36.031Z,456.00
2023-04-28T11:59:37.314Z,407.00
2023-04-28T12:00:36.025Z,428.00
2023-04-28T12:01:35.969Z,410.00
2023-04-28T12:02:36.181Z,440.00
2023-04-28T12:03:36.701Z,422.00
2023-04-28T12:04:36.000Z,409.00
2023-04-28T12:05:38.746Z,415.00
2023-04-28T12:06:35.970Z,403.00
2023-04-28T12:07:35.930Z,413.00
2023-04-28T12:08:36.054Z,417.00
2023-04-28T12:09:36.111Z,406.00
2023-04-28T12:10:35.946Z,423.00
2023-04-28T12:11:36.033Z,422.00
2023-04-28T12:12:48.997Z,406.00
2023-04-28T12:13:36.937Z,407.00
2023-04-28T12:14:36.096Z,413.00
2023-04-28T12:15:35.969Z,412.00
2023-04-28T12:16:35.941Z,405.00
2023-04-28T12:17:35.929Z,398.00
2023-04-28T12:18:35.923Z,413.00
2023-04-28T12:19:36.269Z,432.00
2023-04-28T12:20:35.951Z,408.00
2023-04-28T12:21:38.116Z,413.00
2023-04-28T12:22:35.902Z,372.00
2023-04-28T12:23:35.890Z,393.00
2023-04-28T12:24:36.258Z,411.00
2023-04-28T12:25:35.820Z,419.00
2023-04-28T12:26:35.829Z,419.00
2023-04-28T12:27:37.910Z,430.00
2023-04-28T12:28:35.829Z,399.00
2023-04-28T12:29:36.137Z,402.00
2023-04-28T12:30:35.864Z,446.00
2023-04-28T12:31:35.873Z,417.00